createdAt,value
2023-02-11T00:02:17.518Z,101591.69
2023-02-11T00:04:45.097Z,101592.50
2023-02-11T00:07:12.610Z,101604.13
2023-02-11T00:09:41.451Z,101596.88
2023-02-11T00:12:08.931Z,101585.56
2023-02-11T00:14:36.448Z,101569.66
2023-02-11T00:17:03.976Z,101565.34
2023-02-11T00:19:31.732Z,101562.69
2023-02-11T00:21:59.224Z,101566.66
2023-02-11T00:24:26.730Z,101562.09
2023-02-11T00:26:56.582Z,101550.06
2023-02-11T00:29:24.101Z,101558.72
2023-02-11T00:31:51.769Z,101553.06
2023-02-11T00:34:19.459Z,101544.03
2023-02-11T00:36:46.928Z,101548.47
2023-02-11T00:39:14.482Z,101569.25
2023-02-11T00:41:42.032Z,101574.00
2023-02-11T00:44:10.818Z,101568.19
2023-02-11T00:46:38.346Z,101558.34
2023-02-11T00:49:05.876Z,101559.19
2023-02-11T00:51:33.382Z,101561.88
2023-02-11T00:54:00.855Z,101563.94
2023-02-11T00:56:28.398Z,101572.69
2023-02-11T00:58:55.902Z,101585.66
2023-02-11T01:01:24.978Z,101582.94
2023-02-11T01:03:52.560Z,101586.19
2023-02-11T01:06:20.097Z,101590.38
2023-02-11T01:08:47.618Z,101578.59
2023-02-11T01:11:16.847Z,101583.25
2023-02-11T01:13:44.462Z,101583.91
2023-02-11T01:16:12.652Z,101569.69
2023-02-11T01:18:44.225Z,101561.13
2023-02-11T01:21:11.810Z,101574.44
2023-02-11T01:23:39.324Z,101570.63
2023-02-11T01:26:06.841Z,101570.66
2023-02-11T01:28:34.592Z,101548.34
2023-02-11T01:31:02.814Z,101544.50
2023-02-11T01:33:30.383Z,101540.72
2023-02-11T01:36:02.772Z,101536.47
2023-02-11T01:38:30.591Z,101533.94
2023-02-11T01:41:00.228Z,101527.63
2023-02-11T01:43:35.830Z,101517.72
2023-02-11T01:46:22.391Z,101528.34
2023-02-11T01:48:51.699Z,101525.84
2023-02-11T01:51:23.535Z,101528.50
2023-02-11T01:54:09.753Z,101528.97
2023-02-11T01:56:58.709Z,101520.03
2023-02-11T01:59:30.689Z,101510.75
2023-02-11T02:02:01.170Z,101516.59
2023-02-11T02:04:31.558Z,101509.00
2023-02-11T02:07:03.911Z,101511.84
2023-02-11T02:09:35.571Z,101508.00
2023-02-11T02:12:03.089Z,101501.97
2023-02-11T02:14:30.601Z,101511.09
2023-02-11T02:16:58.071Z,101514.34
2023-02-11T02:19:54.509Z,101519.91
2023-02-11T02:22:42.215Z,101512.63
2023-02-11T02:25:29.128Z,101518.75
2023-02-11T02:28:02.837Z,101511.31
2023-02-11T02:30:47.907Z,101520.22
2023-02-11T02:33:31.886Z,101512.34
2023-02-11T02:36:09.095Z,101504.09
2023-02-11T02:38:39.434Z,101513.88
2023-02-11T02:41:09.367Z,101511.44
2023-02-11T02:43:44.143Z,101507.03
2023-02-11T02:46:17.722Z,101504.47
2023-02-11T02:48:49.346Z,101506.34
2023-02-11T02:51:46.987Z,101505.44
2023-02-11T02:54:58.950Z,101515.13
2023-02-11T02:57:31.817Z,101500.91
2023-02-11T03:00:12.262Z,101505.59
2023-02-11T03:02:46.111Z,101508.81
2023-02-11T03:05:18.773Z,101515.72
2023-02-11T03:07:51.828Z,101523.16
2023-02-11T03:10:20.663Z,101511.91
2023-02-11T03:12:49.653Z,101503.03
2023-02-11T03:15:18.818Z,101499.63
2023-02-11T03:17:49.014Z,101496.06
2023-02-11T03:20:19.914Z,101489.88
2023-02-11T03:22:50.685Z,101485.84
2023-02-11T03:25:18.491Z,101480.91
2023-02-11T03:27:48.840Z,101468.41
2023-02-11T03:30:19.704Z,101472.09
2023-02-11T03:32:51.055Z,101476.44
2023-02-11T03:35:23.160Z,101470.25
2023-02-11T03:37:53.083Z,101471.34
2023-02-11T03:40:22.517Z,101468.50
2023-02-11T03:42:55.298Z,101464.88
2023-02-11T03:45:24.460Z,101459.66
2023-02-11T03:47:55.391Z,101459.66
2023-02-11T03:50:24.625Z,101470.19
2023-02-11T03:52:52.706Z,101460.59
2023-02-11T03:55:21.934Z,101461.59
2023-02-11T03:57:49.420Z,101459.72
2023-02-11T04:00:17.141Z,101463.38
2023-02-11T04:02:45.354Z,101457.88
2023-02-11T04:05:15.626Z,101467.47
2023-02-11T04:07:44.423Z,101467.81
2023-02-11T04:10:13.200Z,101466.03
2023-02-11T04:12:40.672Z,101472.91
2023-02-11T04:15:08.686Z,101470.34
2023-02-11T04:17:36.335Z,101473.75
2023-02-11T04:20:04.081Z,101478.03
2023-02-11T04:22:31.610Z,101469.50
2023-02-11T04:25:00.390Z,101471.09
2023-02-11T04:27:27.867Z,101467.72
2023-02-11T04:29:55.369Z,101465.44
2023-02-11T04:32:22.860Z,101470.16
2023-02-11T04:34:50.433Z,101462.31
2023-02-11T04:37:17.931Z,101469.44
2023-02-11T04:39:45.407Z,101463.38
2023-02-11T04:42:14.535Z,101457.25
2023-02-11T04:47:09.588Z,101456.38
2023-02-11T04:49:37.070Z,101456.34
2023-02-11T04:52:05.077Z,101458.06
2023-02-11T04:54:32.605Z,101442.97
2023-02-11T04:57:00.102Z,101443.00
2023-02-11T04:59:28.952Z,101437.69
2023-02-11T05:01:56.854Z,101442.75
2023-02-11T05:04:24.483Z,101438.56
2023-02-11T05:06:52.319Z,101435.03
2023-02-11T05:09:19.856Z,101428.94
2023-02-11T05:11:47.371Z,101421.38
2023-02-11T05:14:14.833Z,101419.06
2023-02-11T05:16:43.745Z,101421.88
2023-02-11T05:19:11.266Z,101425.44
2023-02-11T05:21:40.062Z,101426.41
2023-02-11T05:24:09.134Z,101418.72
2023-02-11T05:26:36.846Z,101415.50
2023-02-11T05:29:04.352Z,101418.16
2023-02-11T05:31:32.734Z,101416.50
2023-02-11T05:34:03.824Z,101418.38
2023-02-11T05:36:33.494Z,101419.03
2023-02-11T05:39:01.094Z,101424.28
2023-02-11T05:41:28.615Z,101421.03
2023-02-11T05:43:56.120Z,101425.16
2023-02-11T05:46:23.650Z,101426.19
2023-02-11T05:48:51.186Z,101423.78
2023-02-11T05:51:20.008Z,101425.47
2023-02-11T05:53:47.517Z,101433.38
2023-02-11T05:56:15.301Z,101434.41
2023-02-11T05:58:43.029Z,101429.78
2023-02-11T06:01:10.620Z,101435.16
2023-02-11T06:03:38.152Z,101417.97
2023-02-11T06:06:06.752Z,101423.59
2023-02-11T06:08:37.575Z,101421.00
2023-02-11T06:11:06.616Z,101435.09
2023-02-11T06:13:34.131Z,101421.16
2023-02-11T06:16:03.041Z,101418.22
2023-02-11T06:18:30.621Z,101432.38
2023-02-11T06:20:58.082Z,101417.56
2023-02-11T06:23:26.003Z,101414.91
2023-02-11T06:25:55.834Z,101424.34
2023-02-11T06:28:23.388Z,101427.25
2023-02-11T06:30:50.952Z,101420.16
2023-02-11T06:33:18.443Z,101421.94
2023-02-11T06:35:45.938Z,101418.47
2023-02-11T06:38:13.458Z,101426.31
2023-02-11T06:40:41.034Z,101430.84
2023-02-11T06:43:09.830Z,101427.25
2023-02-11T06:45:37.550Z,101423.72
2023-02-11T06:48:05.066Z,101432.63
2023-02-11T06:50:32.544Z,101427.34
2023-02-11T06:53:00.233Z,101431.66
2023-02-11T06:55:27.782Z,101432.69
2023-02-11T06:57:55.283Z,101445.25
2023-02-11T07:00:24.170Z,101437.06
2023-02-11T07:02:51.795Z,101445.03
2023-02-11T07:05:19.496Z,101442.31
2023-02-11T07:07:47.273Z,101440.78
2023-02-11T07:10:14.754Z,101440.72
2023-02-11T07:12:42.497Z,101437.97
2023-02-11T07:15:10.135Z,101434.47
2023-02-11T07:17:38.966Z,101435.22
2023-02-11T07:20:07.100Z,101438.88
2023-02-11T07:22:35.055Z,101442.41
2023-02-11T07:25:02.572Z,101452.22
2023-02-11T07:27:30.120Z,101445.91
2023-02-11T07:29:57.608Z,101444.44
2023-02-11T07:32:25.103Z,101440.84
2023-02-11T07:34:53.944Z,101436.50
2023-02-11T07:37:21.529Z,101429.47
2023-02-11T07:39:49.040Z,101423.09
2023-02-11T07:42:16.539Z,101416.19
2023-02-11T07:44:44.055Z,101422.38
2023-02-11T07:47:11.565Z,101411.69
2023-02-11T07:49:39.038Z,101414.25
2023-02-11T07:52:07.888Z,101409.97
2023-02-11T07:54:35.365Z,101412.53
2023-02-11T07:57:02.852Z,101424.09
2023-02-11T07:59:30.732Z,101418.72
2023-02-11T08:01:58.308Z,101428.44
2023-02-11T08:04:25.996Z,101435.66
2023-02-11T08:06:57.903Z,101443.75
2023-02-11T08:09:27.906Z,101441.88
2023-02-11T08:11:55.372Z,101445.53
2023-02-11T08:14:25.110Z,101443.66
2023-02-11T08:16:52.627Z,101440.09
2023-02-11T08:19:20.188Z,101444.59
2023-02-11T08:21:47.956Z,101452.56
2023-02-11T08:24:15.735Z,101468.53
2023-02-11T08:26:44.845Z,101459.81
2023-02-11T08:29:14.023Z,101478.19
2023-02-11T08:31:44.813Z,101466.91
2023-02-11T08:34:14.260Z,101468.69
2023-02-11T08:36:43.388Z,101475.00
2023-02-11T08:39:19.981Z,101466.09
2023-02-11T08:41:51.199Z,101467.00
2023-02-11T08:44:19.128Z,101477.53
2023-02-11T08:46:46.955Z,101451.94
2023-02-11T08:49:15.007Z,101459.09
2023-02-11T08:51:42.703Z,101462.69
2023-02-11T08:54:10.462Z,101464.56
2023-02-11T08:56:38.831Z,101469.94
2023-02-11T08:59:09.251Z,101460.16
2023-02-11T09:01:36.936Z,101473.34
2023-02-11T09:04:04.559Z,101479.63
2023-02-11T09:06:32.785Z,101480.53
2023-02-11T09:09:00.316Z,101471.50
2023-02-11T09:11:30.770Z,101476.94
2023-02-11T09:13:58.663Z,101477.91
2023-02-11T09:16:29.683Z,101474.47
2023-02-11T09:18:57.826Z,101469.03
2023-02-11T09:21:25.421Z,101483.28
2023-02-11T09:23:53.430Z,101492.28
2023-02-11T09:26:22.846Z,101499.94
2023-02-11T09:28:51.269Z,101506.59
2023-02-11T09:31:20.609Z,101497.72
2023-02-11T09:33:51.897Z,101505.53
2023-02-11T09:36:21.576Z,101508.34
2023-02-11T09:38:49.553Z,101493.22
2023-02-11T09:41:56.086Z,101511.03
2023-02-11T09:44:26.162Z,101523.34
2023-02-11T09:46:56.410Z,101521.41
2023-02-11T09:49:30.539Z,101511.84
2023-02-11T09:52:00.866Z,101513.63
2023-02-11T09:54:31.111Z,101514.41
2023-02-11T09:56:58.590Z,101518.22
2023-02-11T09:59:26.205Z,101536.94
2023-02-11T10:01:56.457Z,101526.03
2023-02-11T10:04:37.873Z,101536.88
2023-02-11T10:07:09.018Z,101531.53
2023-02-11T10:09:49.878Z,101533.28
2023-02-11T10:12:29.967Z,101536.94
2023-02-11T10:15:29.908Z,101535.91
2023-02-11T10:18:06.527Z,101535.97
2023-02-11T10:20:38.664Z,101515.69
2023-02-11T10:23:11.338Z,101527.13
2023-02-11T10:25:41.299Z,101519.16
2023-02-11T10:28:15.062Z,101526.44
2023-02-11T10:30:45.137Z,101513.09
2023-02-11T10:33:17.880Z,101528.31
2023-02-11T10:35:46.932Z,101527.44
2023-02-11T10:38:14.379Z,101515.00
2023-02-11T10:40:42.300Z,101530.09
2023-02-11T10:43:12.853Z,101541.53
2023-02-11T10:45:43.492Z,101542.56
2023-02-11T10:48:42.407Z,101547.84
2023-02-11T10:51:17.478Z,101546.75
2023-02-11T10:53:45.369Z,101536.34
2023-02-11T10:56:21.389Z,101538.16
2023-02-11T10:58:56.373Z,101539.94
2023-02-11T11:01:25.114Z,101546.19
2023-02-11T11:03:53.852Z,101552.25
2023-02-11T11:06:31.996Z,101547.00
2023-02-11T11:08:59.820Z,101536.34
2023-02-11T11:11:27.960Z,101539.09
2023-02-11T11:13:59.116Z,101523.13
2023-02-11T11:16:28.337Z,101533.72
2023-02-11T11:19:21.445Z,101540.91
2023-02-11T11:21:51.642Z,101538.25
2023-02-11T11:24:21.348Z,101544.28
2023-02-11T11:26:50.300Z,101533.69
2023-02-11T11:29:20.620Z,101544.34
2023-02-11T11:31:51.113Z,101545.34
2023-02-11T11:34:24.219Z,101550.72
2023-02-11T11:36:53.051Z,101563.19
2023-02-11T11:39:23.823Z,101570.16
2023-02-11T11:41:53.612Z,101573.91
2023-02-11T11:44:29.080Z,101561.38
2023-02-11T11:47:16.935Z,101580.19
2023-02-11T11:49:48.567Z,101576.66
2023-02-11T11:52:23.357Z,101570.44
2023-02-11T11:54:57.242Z,101578.09
2023-02-11T11:57:28.631Z,101577.53
2023-02-11T11:59:56.755Z,101571.22
2023-02-11T12:02:43.882Z,101578.38
2023-02-11T12:05:13.125Z,101577.31
2023-02-11T12:07:52.830Z,101567.41
2023-02-11T12:10:30.714Z,101573.81
2023-02-11T12:13:06.666Z,101565.63
2023-02-11T12:15:39.256Z,101570.38
2023-02-11T12:18:18.873Z,101556.09
2023-02-11T12:20:59.811Z,101560.72
2023-02-11T12:23:37.666Z,101564.13
2023-02-11T12:26:12.470Z,101559.66
2023-02-11T12:28:47.130Z,101568.94
2023-02-11T12:31:27.980Z,101574.22
2023-02-11T12:34:05.935Z,101567.53
2023-02-11T12:36:46.460Z,101578.19
2023-02-11T12:39:27.129Z,101573.09
2023-02-11T12:42:36.185Z,101571.03
2023-02-11T12:45:23.391Z,101569.38
2023-02-11T12:48:01.944Z,101560.53
2023-02-11T12:50:36.974Z,101573.72
2023-02-11T12:53:20.500Z,101573.47
2023-02-11T12:55:52.865Z,101578.19
2023-02-11T12:58:29.680Z,101569.88
2023-02-11T13:01:07.035Z,101549.16
2023-02-11T13:03:38.787Z,101547.31
2023-02-11T13:06:08.918Z,101553.53
2023-02-11T13:08:38.566Z,101547.34
2023-02-11T13:11:14.286Z,101562.19
2023-02-11T13:13:48.549Z,101555.25
2023-02-11T13:16:32.773Z,101554.47
2023-02-11T13:19:04.401Z,101557.84
2023-02-11T13:21:42.364Z,101558.69
2023-02-11T13:24:17.880Z,101550.00
2023-02-11T13:26:54.744Z,101548.25
2023-02-11T13:29:33.759Z,101560.91
2023-02-11T13:32:08.311Z,101559.19
2023-02-11T13:34:55.554Z,101560.97
2023-02-11T13:37:26.336Z,101558.13
2023-02-11T13:39:59.161Z,101561.69
2023-02-11T13:42:28.452Z,101568.91
2023-02-11T13:44:56.535Z,101555.63
2023-02-11T13:47:29.362Z,101567.06
2023-02-11T13:49:57.914Z,101571.97
2023-02-11T13:52:27.285Z,101574.25
2023-02-11T13:54:56.836Z,101573.31
2023-02-11T13:57:40.035Z,101573.31
2023-02-11T14:00:26.658Z,101580.19
2023-02-11T14:03:45.952Z,101578.69
2023-02-11T14:06:42.970Z,101585.63
2023-02-11T14:09:39.583Z,101573.47
2023-02-11T14:12:37.862Z,101582.19
2023-02-11T14:15:28.046Z,101578.81
2023-02-11T14:17:55.564Z,101589.34
2023-02-11T14:20:51.353Z,101582.31
2023-02-11T14:23:27.231Z,101579.41
2023-02-11T14:26:29.060Z,101572.66
2023-02-11T14:29:02.137Z,101579.22
2023-02-11T14:31:36.398Z,101578.56
2023-02-11T14:34:15.689Z,101580.63
2023-02-11T14:37:04.976Z,101581.59
2023-02-11T14:39:43.533Z,101584.81
2023-02-11T14:42:18.984Z,101582.44
2023-02-11T14:44:47.693Z,101594.66
2023-02-11T14:47:18.569Z,101610.88
2023-02-11T14:49:46.135Z,101604.09
2023-02-11T14:52:19.501Z,101592.84
2023-02-11T14:54:49.917Z,101591.84
2023-02-11T14:57:20.034Z,101606.25
2023-02-11T14:59:58.852Z,101608.47
2023-02-11T15:02:30.395Z,101609.50
2023-02-11T15:05:17.147Z,101621.75
2023-02-11T15:07:46.706Z,101623.81
2023-02-11T15:10:20.103Z,101628.28
2023-02-11T15:12:50.171Z,101635.06
2023-02-11T15:15:17.905Z,101634.13
2023-02-11T15:17:45.521Z,101627.56
2023-02-11T15:20:21.027Z,101630.38
2023-02-11T15:22:49.317Z,101632.03
2023-02-11T15:25:19.780Z,101631.47
2023-02-11T15:27:50.871Z,101632.25
2023-02-11T15:30:30.183Z,101632.25
2023-02-11T15:33:00.088Z,101631.69
2023-02-11T15:35:29.448Z,101632.34
2023-02-11T15:37:58.305Z,101635.91
2023-02-11T15:40:28.900Z,101637.81
2023-02-11T15:42:59.373Z,101631.19
2023-02-11T15:45:30.464Z,101635.88
2023-02-11T15:48:01.403Z,101633.09
2023-02-11T15:50:30.431Z,101628.84
2023-02-11T15:53:00.646Z,101628.69
2023-02-11T15:55:29.347Z,101631.25
2023-02-11T15:57:59.640Z,101623.31
2023-02-11T16:00:32.365Z,101625.84
2023-02-11T16:03:00.028Z,101625.28
2023-02-11T16:05:30.489Z,101639.19
2023-02-11T16:07:58.909Z,101637.69
2023-02-11T16:10:29.044Z,101636.03
2023-02-11T16:13:04.275Z,101647.13
2023-02-11T16:15:43.742Z,101641.91
2023-02-11T16:18:28.524Z,101643.63
2023-02-11T16:21:05.762Z,101645.34
2023-02-11T16:23:35.666Z,101639.41
2023-02-11T16:26:08.794Z,101642.22
2023-02-11T16:28:38.274Z,101651.63
2023-02-11T16:31:06.342Z,101658.66
2023-02-11T16:33:34.025Z,101669.25
2023-02-11T16:36:02.181Z,101658.81
2023-02-11T16:38:31.159Z,101661.22
2023-02-11T16:40:58.694Z,101668.25
2023-02-11T16:43:26.350Z,101670.34
2023-02-11T16:45:55.142Z,101660.91
2023-02-11T16:48:22.697Z,101669.53
2023-02-11T16:50:53.425Z,101679.19
2023-02-11T16:53:23.986Z,101682.56
2023-02-11T16:55:51.994Z,101686.13
2023-02-11T16:58:19.963Z,101685.16
2023-02-11T17:00:48.627Z,101688.72
2023-02-11T17:03:20.815Z,101680.22
2023-02-11T17:05:58.322Z,101681.16
2023-02-11T17:08:26.155Z,101685.88
2023-02-11T17:10:53.927Z,101688.16
2023-02-11T17:13:21.579Z,101696.75
2023-02-11T17:15:49.203Z,101698.41
2023-02-11T17:18:18.041Z,101703.69
2023-02-11T17:20:45.840Z,101713.69
2023-02-11T17:23:13.494Z,101710.06
2023-02-11T17:25:41.073Z,101705.63
2023-02-11T17:28:12.084Z,101715.28
2023-02-11T17:30:41.190Z,101723.56
2023-02-11T17:33:09.562Z,101720.59
2023-02-11T17:35:41.570Z,101716.97
2023-02-11T17:38:09.072Z,101720.47
2023-02-11T17:40:36.569Z,101725.72
2023-02-11T17:43:04.450Z,101728.69
2023-02-11T17:45:32.002Z,101733.78
2023-02-11T17:47:59.551Z,101727.81
2023-02-11T17:50:29.520Z,101752.34
2023-02-11T17:52:58.668Z,101746.13
2023-02-11T17:55:26.123Z,101740.88
2023-02-11T17:57:53.717Z,101748.03
2023-02-11T18:00:22.842Z,101748.03
2023-02-11T18:02:50.381Z,101744.44
2023-02-11T18:05:18.029Z,101754.09
2023-02-11T18:07:45.549Z,101759.44
2023-02-11T18:10:14.530Z,101769.16
2023-02-11T18:12:42.099Z,101776.34
2023-02-11T18:15:10.407Z,101779.84
2023-02-11T18:17:37.884Z,101789.19
2023-02-11T18:20:06.652Z,101787.75
2023-02-11T18:22:39.078Z,101783.25
2023-02-11T18:25:07.928Z,101777.50
2023-02-11T18:27:37.223Z,101780.91
2023-02-11T18:30:05.351Z,101797.16
2023-02-11T18:32:33.040Z,101787.41
2023-02-11T18:35:00.564Z,101797.78
2023-02-11T18:37:28.052Z,101797.03
2023-02-11T18:39:55.555Z,101796.81
2023-02-11T18:42:23.299Z,101795.94
2023-02-11T18:44:52.399Z,101789.66
2023-02-11T18:47:19.863Z,101803.03
2023-02-11T18:49:47.393Z,101805.72
2023-02-11T18:52:14.867Z,101797.94
2023-02-11T18:54:42.452Z,101807.56
2023-02-11T18:57:10.169Z,101816.34
2023-02-11T18:59:37.677Z,101823.28
2023-02-11T19:02:06.522Z,101820.63
2023-02-11T19:04:37.196Z,101821.41
2023-02-11T19:07:04.805Z,101818.00
2023-02-11T19:09:32.596Z,101819.72
2023-02-11T19:12:01.867Z,101813.53
2023-02-11T19:14:33.400Z,101821.59
2023-02-11T19:17:02.935Z,101822.47
2023-02-11T19:19:34.145Z,101821.66
2023-02-11T19:22:02.700Z,101833.13
2023-02-11T19:24:31.799Z,101829.56
2023-02-11T19:27:00.975Z,101836.63
2023-02-11T19:29:28.769Z,101827.81
2023-02-11T19:31:56.440Z,101828.72
2023-02-11T19:34:23.950Z,101819.22
2023-02-11T19:36:54.545Z,101824.25
2023-02-11T19:39:24.617Z,101835.72
2023-02-11T19:41:52.215Z,101838.41
2023-02-11T19:44:19.775Z,101841.06
2023-02-11T19:46:48.409Z,101845.53
2023-02-11T19:49:17.814Z,101849.22
2023-02-11T19:51:45.281Z,101845.56
2023-02-11T19:54:14.114Z,101847.31
2023-02-11T19:56:41.589Z,101858.72
2023-02-11T19:59:09.161Z,101856.88
2023-02-11T20:01:37.513Z,101853.34
2023-02-11T20:04:05.468Z,101859.53
2023-02-11T20:06:33.842Z,101861.31
2023-02-11T20:09:03.180Z,101862.34
2023-02-11T20:11:33.181Z,101865.06
2023-02-11T20:14:00.834Z,101868.63
2023-02-11T20:16:46.132Z,101859.69
2023-02-11T20:19:17.599Z,101866.16
2023-02-11T20:21:47.053Z,101864.53
2023-02-11T20:24:15.183Z,101873.06
2023-02-11T20:26:45.204Z,101871.63
2023-02-11T20:29:12.844Z,101878.72
2023-02-11T20:31:40.670Z,101877.03
2023-02-11T20:34:08.577Z,101882.00
2023-02-11T20:36:38.032Z,101874.91
2023-02-11T20:39:06.474Z,101877.50
2023-02-11T20:41:35.476Z,101874.69
2023-02-11T20:44:06.209Z,101881.84
2023-02-11T20:46:34.776Z,101885.41
2023-02-11T20:49:02.681Z,101884.44
2023-02-11T20:51:32.608Z,101881.03
2023-02-11T20:54:01.000Z,101885.56
2023-02-11T20:56:30.258Z,101890.94
2023-02-11T20:58:58.641Z,101898.91
2023-02-11T21:01:30.477Z,101910.47
2023-02-11T21:03:59.727Z,101907.66
2023-02-11T21:06:31.368Z,101904.09
2023-02-11T21:08:59.146Z,101898.78
2023-02-11T21:11:26.867Z,101901.59
2023-02-11T21:13:54.728Z,101896.19
2023-02-11T21:16:22.532Z,101906.84
2023-02-11T21:18:52.210Z,101902.34
2023-02-11T21:21:20.705Z,101920.06
2023-02-11T21:23:48.206Z,101911.16
2023-02-11T21:26:16.944Z,101923.63
2023-02-11T21:28:46.000Z,101915.63
2023-02-11T21:31:20.477Z,101924.50
2023-02-11T21:33:48.509Z,101920.06
2023-02-11T21:36:17.645Z,101916.59
2023-02-11T21:38:45.139Z,101913.94
2023-02-11T21:41:12.901Z,101921.94
2023-02-11T21:43:40.381Z,101926.38
2023-02-11T21:46:09.985Z,101932.50
2023-02-11T21:48:37.561Z,101927.13
2023-02-11T21:51:06.082Z,101924.50
2023-02-11T21:53:35.565Z,101922.81
2023-02-11T21:56:07.235Z,101930.69
2023-02-11T21:58:35.160Z,101928.88
2023-02-11T22:01:02.714Z,101935.09
2023-02-11T22:03:30.201Z,101946.59
2023-02-11T22:05:57.863Z,101947.50
2023-02-11T22:08:25.440Z,101956.38
2023-02-11T22:10:54.241Z,101953.78
2023-02-11T22:13:21.740Z,101948.47
2023-02-11T22:15:58.370Z,101951.06
2023-02-11T22:18:25.869Z,101959.03
2023-02-11T22:20:59.428Z,101959.03
2023-02-11T22:23:27.004Z,101959.03
2023-02-11T22:25:56.119Z,101961.06
2023-02-11T22:28:25.343Z,101965.44
2023-02-11T22:30:56.669Z,101962.78
2023-02-11T22:33:24.343Z,101966.22
2023-02-11T22:35:59.349Z,101966.19
2023-02-11T22:38:27.027Z,101976.03
2023-02-11T22:40:56.097Z,101975.13
2023-02-11T22:43:23.800Z,101981.28
2023-02-11T22:45:51.738Z,101985.81
2023-02-11T22:48:22.087Z,101987.50
2023-02-11T22:50:50.558Z,101999.13
2023-02-11T22:53:18.028Z,101993.81
2023-02-11T22:55:45.524Z,102002.72
2023-02-11T22:58:14.290Z,102015.41
2023-02-11T23:00:42.729Z,102013.72
2023-02-11T23:03:11.449Z,102019.00
2023-02-11T23:05:39.861Z,102018.22
2023-02-11T23:08:07.931Z,102019.84
2023-02-11T23:10:36.345Z,102033.06
2023-02-11T23:13:04.384Z,102030.06
2023-02-11T23:15:33.488Z,102024.75
2023-02-11T23:18:01.130Z,102027.41
2023-02-11T23:20:28.861Z,102035.72
2023-02-11T23:22:56.448Z,102037.59
2023-02-11T23:25:23.909Z,102038.88
2023-02-11T23:27:51.406Z,102047.25
2023-02-11T23:30:19.993Z,102049.19
2023-02-11T23:32:49.019Z,102034.97
2023-02-11T23:35:22.057Z,102048.81
2023-02-11T23:37:50.527Z,102049.03
2023-02-11T23:40:18.439Z,102049.78
2023-02-11T23:42:47.521Z,102047.81
2023-02-11T23:45:15.270Z,102050.63
2023-02-11T23:47:42.751Z,102053.28
2023-02-11T23:50:12.628Z,102051.41
2023-02-11T23:52:40.100Z,102057.69
2023-02-11T23:55:08.044Z,102050.63
2023-02-11T23:57:36.196Z,102058.47
